Ultra Omega — V7NS2 — position and weather

sailwx.info

Track history (hours):
 
Tides and Currents Weather Stations Pressure Air Temp Water Temp Dewpoint Dewpoint Depression Visibility Wind Speed Wind Dir Waves Ship Positions

Ultra Omega

Last reported at 2018-May-11 06:07 UTC. Time now 2018-Jun-22 20:14 UTC.
Position N 01°28' E 104°31'.
Warning: this ship's position is 42 days out of date.

Length 199 m; draft 13.4 m.

Type: Cargo ship. MMSI: 538006494.

Date/timePositionNaut miles runAvg speedWind from/ knotsBaromVisibWave heightAir tempDewpointWater temp
2018-May-11 06:07N 01°28' E 104°31'613.5
2018-May-11 05:41N 01°24' E 104°27'314.1
2018-May-11 05:28N 01°22' E 104°25'714.1
2018-May-11 04:59N 01°17' E 104°20'714.0
2018-May-11 04:30N 01°16' E 104°13'713.9
2018-May-11 03:59N 01°15' E 104°06'612.8
2018-May-11 03:29N 01°14' E 103°60'3 5.3
2018-May-11 02:59N 01°13' E 103°57'2 3.9
2018-May-11 02:31N 01°13' E 103°55'4 7.2
2018-May-11 02:00N 01°11' E 103°52'713.3
2018-May-11 01:30N 01°08' E 103°46'612.3
2018-May-11 00:59N 01°04' E 103°42'511.1
2018-May-11 00:30N 01°04' E 103°36'611.7
2018-May-10 23:59N 01°07' E 103°31'611.8
2018-May-10 23:29N 01°10' E 103°26'510.9
2018-May-10 22:59N 01°13' E 103°21'611.7
2018-May-10 22:30N 01°17' E 103°18'711.7
2018-May-10 21:56N 01°22' E 103°12'  
Track history (hours):
 
Tides and Currents Weather Stations Pressure Air Temp Water Temp Dewpoint Dewpoint Depression Visibility Wind Speed Wind Dir Waves Ship Positions

Ultra Omega

Last reported at 2018-May-11 06:07 UTC. Time now 2018-Jun-22 20:14 UTC.
Position N 01°28' E 104°31'.
Warning: this ship's position is 42 days out of date.

Length 199 m; draft 13.4 m.

Type: Cargo ship. MMSI: 538006494.

Date/timePositionNaut miles runAvg speedWind from/ knotsBaromVisibWave heightAir tempDewpointWater temp
2018-May-11 06:07N 01°28' E 104°31'613.5
2018-May-11 05:41N 01°24' E 104°27'314.1
2018-May-11 05:28N 01°22' E 104°25'714.1
2018-May-11 04:59N 01°17' E 104°20'714.0
2018-May-11 04:30N 01°16' E 104°13'713.9
2018-May-11 03:59N 01°15' E 104°06'612.8
2018-May-11 03:29N 01°14' E 103°60'3 5.3
2018-May-11 02:59N 01°13' E 103°57'2 3.9
2018-May-11 02:31N 01°13' E 103°55'4 7.2
2018-May-11 02:00N 01°11' E 103°52'713.3
2018-May-11 01:30N 01°08' E 103°46'612.3
2018-May-11 00:59N 01°04' E 103°42'511.1
2018-May-11 00:30N 01°04' E 103°36'611.7
2018-May-10 23:59N 01°07' E 103°31'611.8
2018-May-10 23:29N 01°10' E 103°26'510.9
2018-May-10 22:59N 01°13' E 103°21'611.7
2018-May-10 22:30N 01°17' E 103°18'711.7
2018-May-10 21:56N 01°22' E 103°12'  

Dump ship's entire track history